createdAt,value
2022-08-21T00:01:22.576Z,100.00
2022-08-21T00:03:57.723Z,100.00
2022-08-21T00:06:32.522Z,100.00
2022-08-21T00:09:09.404Z,100.00
2022-08-21T00:11:43.545Z,100.00
2022-08-21T00:14:19.133Z,100.00
2022-08-21T00:16:54.813Z,100.00
2022-08-21T00:19:34.843Z,100.00
2022-08-21T00:22:08.989Z,100.00
2022-08-21T00:24:43.135Z,100.00
2022-08-21T00:27:17.214Z,100.00
2022-08-21T00:29:51.587Z,100.00
2022-08-21T00:32:29.683Z,100.00
2022-08-21T00:35:03.796Z,100.00
2022-08-21T00:37:38.015Z,100.00
2022-08-21T00:40:20.340Z,100.00
2022-08-21T00:42:54.706Z,100.00
2022-08-21T00:45:29.793Z,100.00
2022-08-21T00:48:06.641Z,100.00
2022-08-21T00:50:47.123Z,100.00
2022-08-21T00:53:21.945Z,100.00
2022-08-21T00:55:57.793Z,100.00
2022-08-21T00:58:34.049Z,100.00
2022-08-21T01:01:10.488Z,100.00
2022-08-21T01:03:46.102Z,100.00
2022-08-21T01:06:20.940Z,100.00
2022-08-21T01:08:55.100Z,100.00
2022-08-21T01:11:29.327Z,100.00
2022-08-21T01:14:04.115Z,100.00
2022-08-21T01:16:38.643Z,100.00
2022-08-21T01:19:15.025Z,100.00
2022-08-21T01:21:50.549Z,100.00
2022-08-21T01:24:25.968Z,100.00
2022-08-21T01:27:01.144Z,100.00
2022-08-21T01:29:40.984Z,100.00
2022-08-21T01:32:20.403Z,100.00
2022-08-21T01:34:54.870Z,100.00
2022-08-21T01:37:30.542Z,100.00
2022-08-21T01:40:06.054Z,100.00
2022-08-21T01:42:42.486Z,100.00
2022-08-21T01:45:17.791Z,100.00
2022-08-21T01:47:51.985Z,100.00
2022-08-21T01:50:26.375Z,100.00
2022-08-21T01:53:01.618Z,100.00
2022-08-21T01:55:35.498Z,100.00
2022-08-21T01:58:09.573Z,100.00
2022-08-21T02:00:43.571Z,100.00
2022-08-21T02:03:23.257Z,100.00
2022-08-21T02:06:15.973Z,100.00
2022-08-21T02:08:52.472Z,100.00
2022-08-21T02:11:26.826Z,100.00
2022-08-21T02:14:01.279Z,100.00
2022-08-21T02:16:35.787Z,100.00
2022-08-21T02:19:11.437Z,100.00
2022-08-21T02:21:46.322Z,100.00
2022-08-21T02:24:22.371Z,100.00
2022-08-21T02:26:56.511Z,100.00
2022-08-21T02:29:30.694Z,100.00
2022-08-21T02:32:04.678Z,100.00
2022-08-21T02:34:38.658Z,100.00
2022-08-21T02:37:14.130Z,100.00
2022-08-21T02:39:49.776Z,100.00
2022-08-21T02:42:23.829Z,100.00
2022-08-21T02:44:57.837Z,100.00
2022-08-21T02:47:31.567Z,100.00
2022-08-21T02:50:06.969Z,100.00
2022-08-21T02:52:41.457Z,100.00
2022-08-21T02:55:17.503Z,100.00
2022-08-21T02:57:51.940Z,100.00
2022-08-21T03:00:30.326Z,100.00
2022-08-21T03:03:05.199Z,100.00
2022-08-21T03:05:39.900Z,100.00
2022-08-21T03:08:17.017Z,100.00
2022-08-21T03:10:54.726Z,100.00
2022-08-21T03:13:28.997Z,100.00
2022-08-21T03:16:02.895Z,100.00
2022-08-21T03:18:38.967Z,100.00
2022-08-21T03:21:14.305Z,100.00
2022-08-21T03:23:48.632Z,100.00
2022-08-21T03:26:26.225Z,100.00
2022-08-21T03:29:02.135Z,100.00
2022-08-21T03:31:36.105Z,100.00
2022-08-21T03:34:10.144Z,100.00
2022-08-21T03:36:44.628Z,100.00
2022-08-21T03:39:18.665Z,100.00
2022-08-21T03:41:55.561Z,100.00
2022-08-21T03:44:31.251Z,100.00
2022-08-21T03:47:06.206Z,100.00
2022-08-21T03:49:40.757Z,100.00
2022-08-21T03:52:15.044Z,100.00
2022-08-21T03:54:48.549Z,100.00
2022-08-21T03:57:23.958Z,100.00
2022-08-21T03:59:58.043Z,100.00
2022-08-21T04:02:31.845Z,100.00
2022-08-21T04:05:07.678Z,100.00
2022-08-21T04:07:41.948Z,100.00
2022-08-21T04:10:16.799Z,100.00
2022-08-21T04:12:52.478Z,100.00
2022-08-21T04:15:28.634Z,100.00
2022-08-21T04:18:02.917Z,100.00
2022-08-21T04:20:37.200Z,100.00
2022-08-21T04:23:11.467Z,100.00
2022-08-21T04:25:45.819Z,100.00
2022-08-21T04:28:22.465Z,100.00
2022-08-21T04:30:57.864Z,100.00
2022-08-21T04:33:31.920Z,100.00
2022-08-21T04:36:08.152Z,100.00
2022-08-21T04:38:43.207Z,100.00
2022-08-21T04:41:19.007Z,100.00
2022-08-21T04:44:03.611Z,100.00
2022-08-21T04:46:37.500Z,100.00
2022-08-21T04:49:11.475Z,100.00
2022-08-21T04:51:45.580Z,100.00
2022-08-21T04:54:23.389Z,100.00
2022-08-21T04:57:04.631Z,100.00
2022-08-21T04:59:43.671Z,100.00
2022-08-21T05:02:18.056Z,100.00
2022-08-21T05:04:55.767Z,100.00
2022-08-21T05:07:42.714Z,100.00
2022-08-21T05:10:17.759Z,100.00
2022-08-21T05:12:52.259Z,100.00
2022-08-21T05:15:27.822Z,100.00
2022-08-21T05:18:01.676Z,100.00
2022-08-21T05:20:35.875Z,100.00
2022-08-21T05:23:10.910Z,100.00
2022-08-21T05:25:46.139Z,100.00
2022-08-21T05:28:20.139Z,100.00
2022-08-21T05:30:56.095Z,100.00
2022-08-21T05:33:30.426Z,100.00
2022-08-21T05:36:04.532Z,100.00
2022-08-21T05:38:39.042Z,100.00
2022-08-21T05:41:13.782Z,99.96
2022-08-21T05:43:48.783Z,98.83
2022-08-21T05:46:24.333Z,97.74
2022-08-21T05:48:58.883Z,96.44
2022-08-21T05:51:33.215Z,93.23
2022-08-21T05:54:07.926Z,92.09
2022-08-21T05:56:45.810Z,90.35
2022-08-21T05:59:21.225Z,90.04
2022-08-21T06:01:57.377Z,87.41
2022-08-21T06:04:31.838Z,85.19
2022-08-21T06:07:06.298Z,81.49
2022-08-21T06:09:40.887Z,78.89
2022-08-21T06:12:16.843Z,77.89
2022-08-21T06:14:56.400Z,77.54
2022-08-21T06:17:33.320Z,73.99
2022-08-21T06:20:09.025Z,72.78
2022-08-21T06:22:43.458Z,71.83
2022-08-21T06:25:18.074Z,70.27
2022-08-21T06:27:52.866Z,68.45
2022-08-21T06:30:28.541Z,67.45
2022-08-21T06:33:05.190Z,67.54
2022-08-21T06:35:40.462Z,66.70
2022-08-21T06:38:16.214Z,66.19
2022-08-21T06:40:50.550Z,65.72
2022-08-21T06:43:39.294Z,64.55
2022-08-21T06:46:13.958Z,63.27
2022-08-21T06:48:54.593Z,63.14
2022-08-21T06:51:30.023Z,62.75
2022-08-21T06:54:04.916Z,61.53
2022-08-21T06:56:39.654Z,60.85
2022-08-21T06:59:14.677Z,60.44
2022-08-21T07:01:49.388Z,60.10
2022-08-21T07:04:25.137Z,60.68
2022-08-21T07:06:59.543Z,60.80
2022-08-21T07:09:34.522Z,60.88
2022-08-21T07:12:09.054Z,59.14
2022-08-21T07:14:43.608Z,60.45
2022-08-21T07:17:18.011Z,59.20
2022-08-21T07:19:53.789Z,58.63
2022-08-21T07:22:29.169Z,58.03
2022-08-21T07:25:02.633Z,55.08
2022-08-21T07:27:37.501Z,54.43
2022-08-21T07:30:12.911Z,54.06
2022-08-21T07:32:47.285Z,52.86
2022-08-21T07:35:23.555Z,53.93
2022-08-21T07:37:58.247Z,51.32
2022-08-21T07:40:32.911Z,51.46
2022-08-21T07:43:06.491Z,50.57
2022-08-21T07:45:41.278Z,51.82
2022-08-21T07:48:14.683Z,53.19
2022-08-21T07:50:51.373Z,53.25
2022-08-21T07:53:26.331Z,52.28
2022-08-21T07:56:01.463Z,52.50
2022-08-21T07:58:35.756Z,52.63
2022-08-21T08:01:09.319Z,51.45
2022-08-21T08:03:43.855Z,51.74
2022-08-21T08:06:20.870Z,50.99
2022-08-21T08:08:55.723Z,50.56
2022-08-21T08:11:29.457Z,49.92
2022-08-21T08:14:04.976Z,50.53
2022-08-21T08:16:39.190Z,50.94
2022-08-21T08:19:13.870Z,51.78
2022-08-21T08:21:50.064Z,53.53
2022-08-21T08:24:24.390Z,51.99
2022-08-21T08:26:59.056Z,51.73
2022-08-21T08:29:33.644Z,50.72
2022-08-21T08:32:11.330Z,49.03
2022-08-21T08:34:46.121Z,50.18
2022-08-21T08:37:24.078Z,52.44
2022-08-21T08:40:04.537Z,50.38
2022-08-21T08:42:40.777Z,49.38
2022-08-21T08:45:19.285Z,49.84
2022-08-21T08:48:05.272Z,50.13
2022-08-21T08:50:48.291Z,50.64
2022-08-21T08:53:28.512Z,50.47
2022-08-21T08:56:05.505Z,49.82
2022-08-21T08:58:44.240Z,48.21
2022-08-21T09:01:23.412Z,49.47
2022-08-21T09:04:03.108Z,50.98
2022-08-21T09:06:57.339Z,50.29
2022-08-21T09:09:49.128Z,49.04
2022-08-21T09:12:36.624Z,49.97
2022-08-21T09:15:23.485Z,50.25
2022-08-21T09:18:35.545Z,49.97
2022-08-21T09:21:19.654Z,49.21
2022-08-21T09:24:03.844Z,48.66
2022-08-21T09:26:50.189Z,47.77
2022-08-21T09:29:30.628Z,47.56
2022-08-21T09:32:06.399Z,46.69
2022-08-21T09:34:40.604Z,47.46
2022-08-21T09:37:20.994Z,48.15
2022-08-21T09:39:55.136Z,47.50
2022-08-21T09:42:34.299Z,47.89
2022-08-21T09:45:14.968Z,46.76
2022-08-21T09:47:49.284Z,46.11
2022-08-21T09:50:28.445Z,46.05
2022-08-21T09:53:04.786Z,45.63
2022-08-21T09:56:11.359Z,45.83
2022-08-21T09:58:52.251Z,45.56
2022-08-21T10:01:28.854Z,45.70
2022-08-21T10:04:07.716Z,44.83
2022-08-21T10:06:42.763Z,44.99
2022-08-21T10:09:21.762Z,45.07
2022-08-21T10:12:13.015Z,44.43
2022-08-21T10:15:08.547Z,43.61
2022-08-21T10:17:55.568Z,45.07
2022-08-21T10:20:38.960Z,44.47
2022-08-21T10:23:32.445Z,42.62
2022-08-21T10:26:17.061Z,40.96
2022-08-21T10:29:00.079Z,41.79
2022-08-21T10:31:48.245Z,43.19
2022-08-21T10:34:39.737Z,43.02
2022-08-21T10:37:27.395Z,40.70
2022-08-21T10:40:14.835Z,40.85
2022-08-21T10:43:03.213Z,40.91
2022-08-21T10:45:51.435Z,41.62
2022-08-21T10:48:32.729Z,40.70
2022-08-21T10:51:13.649Z,40.49
2022-08-21T10:54:01.993Z,39.97
2022-08-21T10:56:44.109Z,40.34
2022-08-21T10:59:37.991Z,39.82
2022-08-21T11:02:21.401Z,41.46
2022-08-21T11:05:04.252Z,40.62
2022-08-21T11:07:46.667Z,40.12
2022-08-21T11:10:28.901Z,39.95
2022-08-21T11:13:09.989Z,38.66
2022-08-21T11:15:52.219Z,39.62
2022-08-21T11:18:31.282Z,39.60
2022-08-21T11:21:22.406Z,39.44
2022-08-21T11:24:05.714Z,39.56
2022-08-21T11:26:46.864Z,40.03
2022-08-21T11:29:31.399Z,41.11
2022-08-21T11:32:46.638Z,39.75
2022-08-21T11:35:30.350Z,38.48
2022-08-21T11:38:20.291Z,38.57
2022-08-21T11:41:15.353Z,39.12
2022-08-21T11:43:57.196Z,39.65
2022-08-21T11:46:42.891Z,39.69
2022-08-21T11:49:37.399Z,39.06
2022-08-21T11:52:21.568Z,38.98
2022-08-21T11:55:04.139Z,39.63
2022-08-21T11:57:45.883Z,40.21
2022-08-21T12:00:27.702Z,41.05
2022-08-21T12:03:12.413Z,40.69
2022-08-21T12:05:57.130Z,39.34
2022-08-21T12:08:35.229Z,39.82
2022-08-21T12:11:13.673Z,39.95
2022-08-21T12:14:02.259Z,40.39
2022-08-21T12:16:39.094Z,39.99
2022-08-21T12:19:16.181Z,38.72
2022-08-21T12:21:56.518Z,39.79
2022-08-21T12:24:41.725Z,38.39
2022-08-21T12:27:33.705Z,40.31
2022-08-21T12:30:27.361Z,38.24
2022-08-21T12:33:25.494Z,38.29
2022-08-21T12:36:09.774Z,40.16
2022-08-21T12:39:05.366Z,39.50
2022-08-21T12:41:50.606Z,38.37
2022-08-21T12:44:44.421Z,39.34
2022-08-21T12:47:31.044Z,38.31
2022-08-21T12:50:12.267Z,40.03
2022-08-21T12:53:01.496Z,38.66
2022-08-21T12:55:38.070Z,38.58
2022-08-21T12:58:22.022Z,38.33
2022-08-21T13:01:04.600Z,38.45
2022-08-21T13:03:41.084Z,39.52
2022-08-21T13:06:19.883Z,37.47
2022-08-21T13:09:03.520Z,37.29
2022-08-21T13:11:40.837Z,38.13
2022-08-21T13:14:35.173Z,37.28
2022-08-21T13:17:26.081Z,38.00
2022-08-21T13:20:03.783Z,37.20
2022-08-21T13:22:45.360Z,36.69
2022-08-21T13:25:24.047Z,37.65
2022-08-21T13:28:08.466Z,37.27
2022-08-21T13:30:53.493Z,38.05
2022-08-21T13:33:37.435Z,37.07
2022-08-21T13:36:17.863Z,35.73
2022-08-21T13:38:54.998Z,35.88
2022-08-21T13:41:33.289Z,35.75
2022-08-21T13:44:28.857Z,34.60
2022-08-21T13:47:06.550Z,34.66
2022-08-21T13:49:47.991Z,34.54
2022-08-21T13:52:32.902Z,35.63
2022-08-21T13:55:17.775Z,36.01
2022-08-21T13:58:03.056Z,35.77
2022-08-21T14:00:47.655Z,34.76
2022-08-21T14:03:33.812Z,34.41
2022-08-21T14:06:19.200Z,33.55
2022-08-21T14:08:58.380Z,34.11
2022-08-21T14:11:37.941Z,33.31
2022-08-21T14:14:24.005Z,33.64
2022-08-21T14:17:01.258Z,32.95
2022-08-21T14:19:56.465Z,34.34
2022-08-21T14:22:40.352Z,33.09
2022-08-21T14:25:29.231Z,34.52
2022-08-21T14:28:27.910Z,34.96
2022-08-21T14:31:17.284Z,34.94
2022-08-21T14:33:52.837Z,34.13
2022-08-21T14:36:27.744Z,34.86
2022-08-21T14:39:04.424Z,34.94
2022-08-21T14:41:40.770Z,34.75
2022-08-21T14:44:16.310Z,34.72
2022-08-21T14:46:55.732Z,33.22
2022-08-21T14:49:33.198Z,33.58
2022-08-21T14:52:08.743Z,34.50
2022-08-21T14:54:45.073Z,34.10
2022-08-21T14:57:19.961Z,32.46
2022-08-21T14:59:56.997Z,33.38
2022-08-21T15:02:34.946Z,33.88
2022-08-21T15:05:10.046Z,33.52
2022-08-21T15:07:45.842Z,33.67
2022-08-21T15:10:22.903Z,33.79
2022-08-21T15:12:57.502Z,33.26
2022-08-21T15:15:33.137Z,31.87
2022-08-21T15:18:08.168Z,32.24
2022-08-21T15:20:43.092Z,33.64
2022-08-21T15:23:18.570Z,33.34
2022-08-21T15:25:58.535Z,32.60
2022-08-21T15:28:33.573Z,33.38
2022-08-21T15:31:08.237Z,33.73
2022-08-21T15:33:42.907Z,35.91
2022-08-21T15:36:17.583Z,33.93
2022-08-21T15:38:52.453Z,33.57
2022-08-21T15:41:28.542Z,33.17
2022-08-21T15:44:02.978Z,34.02
2022-08-21T15:46:36.812Z,34.47
2022-08-21T15:49:11.307Z,34.08
2022-08-21T15:51:45.839Z,33.83
2022-08-21T15:54:19.581Z,34.00
2022-08-21T15:56:54.935Z,34.04
2022-08-21T15:59:41.652Z,34.17
2022-08-21T16:02:18.955Z,33.49
2022-08-21T16:04:53.277Z,34.65
2022-08-21T16:07:27.070Z,35.35
2022-08-21T16:10:03.605Z,34.80
2022-08-21T16:12:46.721Z,34.23
2022-08-21T16:15:21.723Z,35.27
2022-08-21T16:17:57.154Z,35.40
2022-08-21T16:20:32.484Z,35.39
2022-08-21T16:23:07.320Z,35.60
2022-08-21T16:25:44.579Z,35.35
2022-08-21T16:28:23.640Z,35.21
2022-08-21T16:30:58.548Z,35.30
2022-08-21T16:33:36.999Z,35.53
2022-08-21T16:36:12.371Z,35.21
2022-08-21T16:38:48.586Z,35.86
2022-08-21T16:41:24.483Z,36.91
2022-08-21T16:44:01.126Z,37.22
2022-08-21T16:46:37.967Z,38.37
2022-08-21T16:49:11.423Z,39.20
2022-08-21T16:51:45.463Z,39.62
2022-08-21T16:54:21.074Z,39.53
2022-08-21T16:56:54.654Z,38.41
2022-08-21T16:59:31.010Z,37.52
2022-08-21T17:02:05.116Z,37.17
2022-08-21T17:04:39.270Z,37.88
2022-08-21T17:07:13.344Z,37.29
2022-08-21T17:09:47.344Z,37.16
2022-08-21T17:12:21.377Z,38.89
2022-08-21T17:14:58.289Z,37.83
2022-08-21T17:17:32.652Z,38.28
2022-08-21T17:20:08.156Z,39.72
2022-08-21T17:22:42.298Z,41.47
2022-08-21T17:25:17.736Z,41.21
2022-08-21T17:27:52.568Z,42.39
2022-08-21T17:30:28.122Z,43.34
2022-08-21T17:33:03.126Z,43.55
2022-08-21T17:35:37.304Z,44.13
2022-08-21T17:38:14.754Z,45.76
2022-08-21T17:40:50.071Z,46.66
2022-08-21T17:43:25.139Z,46.74
2022-08-21T17:46:00.936Z,47.72
2022-08-21T17:48:36.340Z,49.38
2022-08-21T17:51:11.973Z,50.41
2022-08-21T17:53:46.410Z,51.55
2022-08-21T17:56:21.675Z,51.89
2022-08-21T17:58:55.732Z,52.67
2022-08-21T18:01:36.659Z,53.08
2022-08-21T18:04:10.470Z,54.57
2022-08-21T18:06:45.855Z,55.56
2022-08-21T18:09:21.110Z,55.76
2022-08-21T18:11:55.412Z,56.51
2022-08-21T18:14:32.763Z,57.39
2022-08-21T18:17:13.649Z,57.31
2022-08-21T18:19:51.231Z,57.69
2022-08-21T18:22:24.980Z,58.60
2022-08-21T18:24:58.999Z,58.96
2022-08-21T18:27:33.306Z,59.30
2022-08-21T18:30:08.760Z,60.43
2022-08-21T18:32:44.573Z,60.79
2022-08-21T18:35:18.809Z,60.75
2022-08-21T18:37:52.479Z,60.87
2022-08-21T18:40:26.347Z,61.45
2022-08-21T18:43:04.263Z,61.62
2022-08-21T18:45:39.260Z,62.51
2022-08-21T18:48:16.363Z,63.99
2022-08-21T18:50:50.463Z,65.03
2022-08-21T18:53:27.747Z,65.17
2022-08-21T18:56:05.475Z,65.80
2022-08-21T18:58:39.613Z,66.16
2022-08-21T19:01:14.850Z,66.03
2022-08-21T19:03:52.733Z,66.30
2022-08-21T19:06:27.097Z,66.86
2022-08-21T19:09:02.217Z,67.09
2022-08-21T19:11:37.951Z,67.02
2022-08-21T19:14:18.450Z,67.15
2022-08-21T19:16:52.199Z,67.79
2022-08-21T19:19:28.022Z,67.56
2022-08-21T19:22:03.868Z,68.35
2022-08-21T19:24:38.158Z,68.57
2022-08-21T19:27:12.813Z,68.72
2022-08-21T19:29:47.041Z,69.31
2022-08-21T19:32:21.281Z,69.45
2022-08-21T19:34:56.570Z,68.81
2022-08-21T19:37:31.402Z,68.41
2022-08-21T19:40:07.151Z,69.36
2022-08-21T19:42:43.212Z,69.78
2022-08-21T19:45:16.748Z,70.16
2022-08-21T19:47:50.862Z,71.43
2022-08-21T19:50:25.900Z,71.02
2022-08-21T19:52:59.379Z,71.50
2022-08-21T19:55:33.428Z,71.32
2022-08-21T19:58:08.857Z,71.96
2022-08-21T20:00:44.176Z,71.35
2022-08-21T20:03:21.206Z,70.64
2022-08-21T20:05:56.668Z,71.41
2022-08-21T20:08:30.536Z,72.50
2022-08-21T20:11:05.178Z,72.93
2022-08-21T20:13:39.559Z,73.29
2022-08-21T20:16:17.726Z,74.64
2022-08-21T20:18:51.544Z,74.22
2022-08-21T20:21:27.517Z,74.99
2022-08-21T20:24:01.372Z,74.98
2022-08-21T20:26:35.601Z,75.24
2022-08-21T20:29:09.829Z,75.33
2022-08-21T20:31:44.191Z,75.68
2022-08-21T20:34:17.955Z,76.07
2022-08-21T20:36:53.243Z,75.41
2022-08-21T20:39:26.968Z,76.07
2022-08-21T20:42:00.367Z,76.46
2022-08-21T20:44:34.458Z,77.06
2022-08-21T20:47:09.364Z,77.19
2022-08-21T20:49:48.212Z,76.15
2022-08-21T20:52:26.661Z,76.14
2022-08-21T20:55:08.133Z,76.13
2022-08-21T20:57:51.106Z,76.69
2022-08-21T21:00:27.008Z,76.98
2022-08-21T21:03:08.594Z,77.08
2022-08-21T21:05:50.020Z,76.60
2022-08-21T21:08:30.466Z,77.22
2022-08-21T21:11:07.787Z,77.11
2022-08-21T21:13:48.577Z,77.40
2022-08-21T21:16:29.400Z,77.92
2022-08-21T21:19:06.542Z,78.21
2022-08-21T21:21:52.288Z,77.32
2022-08-21T21:24:35.685Z,77.40
2022-08-21T21:30:15.262Z,77.79
2022-08-21T21:32:50.220Z,77.56
2022-08-21T21:38:35.411Z,79.09
2022-08-21T21:41:20.954Z,79.80
2022-08-21T21:44:22.387Z,80.61
2022-08-21T21:47:04.980Z,80.74
2022-08-21T21:50:00.894Z,81.45
2022-08-21T21:52:58.991Z,81.56
2022-08-21T21:55:52.211Z,81.20
2022-08-21T21:58:45.371Z,81.24
2022-08-21T22:01:28.333Z,82.11
2022-08-21T22:04:06.712Z,82.04
2022-08-21T22:06:51.291Z,82.44
2022-08-21T22:09:40.949Z,82.78
2022-08-21T22:12:49.536Z,82.95
2022-08-21T22:15:35.133Z,83.46
2022-08-21T22:18:12.144Z,83.47
2022-08-21T22:20:54.482Z,83.70
2022-08-21T22:23:33.693Z,83.55
2022-08-21T22:26:14.643Z,83.71
2022-08-21T22:28:51.826Z,83.49
2022-08-21T22:31:30.239Z,84.15
2022-08-21T22:34:18.053Z,84.58
2022-08-21T22:37:01.166Z,85.27
2022-08-21T22:39:40.403Z,85.35
2022-08-21T22:42:22.582Z,85.49
2022-08-21T22:45:02.031Z,85.32
2022-08-21T22:47:43.861Z,85.64
2022-08-21T22:50:30.636Z,85.96
2022-08-21T22:53:08.435Z,85.72
2022-08-21T22:55:47.067Z,86.03
2022-08-21T22:58:27.167Z,86.55
2022-08-21T23:01:06.223Z,85.91
2022-08-21T23:03:49.012Z,86.24
2022-08-21T23:06:29.954Z,86.19
2022-08-21T23:09:05.235Z,85.77
2022-08-21T23:11:45.296Z,86.21
2022-08-21T23:14:26.789Z,86.24
2022-08-21T23:17:06.212Z,86.66
2022-08-21T23:19:58.290Z,87.16
2022-08-21T23:22:47.897Z,87.40
2022-08-21T23:25:47.224Z,87.48
2022-08-21T23:28:40.324Z,87.87
2022-08-21T23:31:26.621Z,87.24
2022-08-21T23:34:09.283Z,87.30
2022-08-21T23:37:18.995Z,87.47
2022-08-21T23:40:14.361Z,87.27
2022-08-21T23:43:05.369Z,87.56
2022-08-21T23:46:01.925Z,87.62
2022-08-21T23:48:59.615Z,87.79
2022-08-21T23:51:53.015Z,87.68
2022-08-21T23:54:41.087Z,88.25
2022-08-21T23:57:31.567Z,88.54
